createdAt,value
2018-07-11T00:03:05.152Z,94886.67
2018-07-11T00:06:10.177Z,94869.94
2018-07-11T00:09:14.480Z,94874.63
2018-07-11T00:12:18.501Z,94873.66
2018-07-11T00:15:23.317Z,94880.87
2018-07-11T00:18:28.239Z,94884.46
2018-07-11T00:21:33.177Z,94885.34
2018-07-11T00:24:37.210Z,94887.61
2018-07-11T00:27:41.741Z,94890.05
2018-07-11T00:30:46.060Z,94897.94
2018-07-11T00:33:50.933Z,94897.38
2018-07-11T00:36:55.436Z,94897.27
2018-07-11T00:39:59.743Z,94889.00
2018-07-11T00:43:04.069Z,94873.05
2018-07-11T00:46:09.366Z,94874.18
2018-07-11T00:49:13.661Z,94875.45
2018-07-11T00:52:18.917Z,94875.09
2018-07-11T00:55:23.231Z,94864.33
2018-07-11T00:58:30.336Z,94868.47
2018-07-11T01:01:35.081Z,94869.33
2018-07-11T01:04:40.552Z,94872.00
2018-07-11T01:07:45.616Z,94874.67
2018-07-11T01:10:50.157Z,94864.33
2018-07-11T01:13:55.265Z,94870.73
2018-07-11T01:16:59.599Z,94873.23
2018-07-11T01:20:03.943Z,94876.12
2018-07-11T01:23:09.413Z,94872.98
2018-07-11T01:26:16.578Z,94876.69
2018-07-11T01:29:20.905Z,94881.26
2018-07-11T01:32:26.121Z,94875.31
2018-07-11T01:35:30.860Z,94870.80
2018-07-11T01:38:35.132Z,94861.97
2018-07-11T01:41:39.609Z,94855.56
2018-07-11T01:44:44.160Z,94854.72
2018-07-11T01:47:49.165Z,94865.95
2018-07-11T01:50:53.545Z,94867.53
2018-07-11T01:53:57.873Z,94874.42
2018-07-11T01:57:03.541Z,94867.36
2018-07-11T02:00:07.908Z,94864.64
2018-07-11T02:03:12.259Z,94857.67
2018-07-11T02:06:16.897Z,94867.34
2018-07-11T02:09:21.248Z,94865.70
2018-07-11T02:12:26.030Z,94870.66
2018-07-11T02:15:31.977Z,94868.30
2018-07-11T02:18:36.833Z,94862.32
2018-07-11T02:21:41.385Z,94852.75
2018-07-11T02:24:45.662Z,94870.17
2018-07-11T02:27:50.543Z,94863.66
2018-07-11T02:30:54.785Z,94860.30
2018-07-11T02:33:59.091Z,94861.56
2018-07-11T02:37:05.592Z,94858.13
2018-07-11T02:40:10.194Z,94852.95
2018-07-11T02:43:14.513Z,94857.20
2018-07-11T02:46:24.100Z,94850.59
2018-07-11T02:49:29.510Z,94843.24
2018-07-11T02:52:34.600Z,94856.69
2018-07-11T02:55:39.175Z,94859.46
2018-07-11T02:58:43.476Z,94842.72
2018-07-11T03:01:47.755Z,94856.64
2018-07-11T03:04:52.026Z,94862.55
2018-07-11T03:07:56.385Z,94863.08
2018-07-11T03:11:00.777Z,94857.41
2018-07-11T03:14:05.105Z,94862.37
2018-07-11T03:17:09.662Z,94858.10
2018-07-11T03:20:14.202Z,94850.60
2018-07-11T03:23:18.524Z,94850.18
2018-07-11T03:26:22.969Z,94849.71
2018-07-11T03:29:27.308Z,94859.62
2018-07-11T03:32:31.671Z,94860.58
2018-07-11T03:35:36.148Z,94862.48
2018-07-11T03:38:40.541Z,94864.41
2018-07-11T03:41:45.001Z,94859.23
2018-07-11T03:44:49.369Z,94857.87
2018-07-11T03:47:53.656Z,94862.53
2018-07-11T03:50:57.783Z,94866.82
2018-07-11T03:54:02.059Z,94858.47
2018-07-11T03:57:06.469Z,94864.08
2018-07-11T04:00:10.873Z,94858.73
2018-07-11T04:03:15.266Z,94859.67
2018-07-11T04:06:20.815Z,94861.64
2018-07-11T04:09:25.398Z,94857.14
2018-07-11T04:12:30.085Z,94854.42
2018-07-11T04:15:34.613Z,94862.77
2018-07-11T04:18:38.898Z,94859.98
2018-07-11T04:21:43.289Z,94858.47
2018-07-11T04:24:47.566Z,94860.20
2018-07-11T04:27:52.000Z,94869.35
2018-07-11T04:30:57.514Z,94864.08
2018-07-11T04:34:01.811Z,94862.56
2018-07-11T04:37:06.113Z,94864.00
2018-07-11T04:40:10.397Z,94874.36
2018-07-11T04:43:16.153Z,94865.84
2018-07-11T04:46:20.943Z,94860.80
2018-07-11T04:49:25.287Z,94863.69
2018-07-11T04:52:29.578Z,94867.66
2018-07-11T04:55:34.857Z,94873.18
2018-07-11T04:58:39.109Z,94867.73
2018-07-11T05:01:43.454Z,94866.02
2018-07-11T05:04:47.975Z,94874.09
2018-07-11T05:07:53.000Z,94870.84
2018-07-11T05:10:57.326Z,94872.75
2018-07-11T05:14:01.597Z,94876.44
2018-07-11T05:17:07.224Z,94880.38
2018-07-11T05:20:11.475Z,94873.35
2018-07-11T05:23:16.146Z,94887.84
2018-07-11T05:26:21.005Z,94881.30
2018-07-11T05:29:25.789Z,94877.63
2018-07-11T05:32:30.041Z,94885.47
2018-07-11T05:35:35.464Z,94887.40
2018-07-11T05:38:39.750Z,94890.14
2018-07-11T05:41:44.045Z,94886.51
2018-07-11T05:44:48.564Z,94899.91
2018-07-11T05:47:52.804Z,94903.92
2018-07-11T05:50:57.229Z,94899.80
2018-07-11T05:54:02.524Z,94909.84
2018-07-11T05:57:06.832Z,94913.21
2018-07-11T06:00:11.143Z,94906.91
2018-07-11T06:03:17.092Z,94908.09
2018-07-11T06:06:21.448Z,94905.08
2018-07-11T06:09:25.780Z,94905.36
2018-07-11T06:12:30.904Z,94905.77
2018-07-11T06:15:35.298Z,94908.56
2018-07-11T06:18:39.698Z,94916.53
2018-07-11T06:21:47.133Z,94920.19
2018-07-11T06:24:51.738Z,94916.94
2018-07-11T06:27:56.292Z,94922.44
2018-07-11T06:31:00.514Z,94927.90
2018-07-11T06:34:04.993Z,94929.99
2018-07-11T06:37:09.360Z,94933.53
2018-07-11T06:40:13.670Z,94934.16
2018-07-11T06:43:20.023Z,94934.39
2018-07-11T06:46:24.507Z,94939.11
2018-07-11T06:49:28.853Z,94937.55
2018-07-11T06:52:33.088Z,94941.13
2018-07-11T06:55:37.401Z,94943.80
2018-07-11T06:58:41.681Z,94945.89
2018-07-11T07:01:45.973Z,94944.91
2018-07-11T07:04:50.750Z,94955.89
2018-07-11T07:07:55.017Z,94965.19
2018-07-11T07:10:59.289Z,94968.11
2018-07-11T07:14:03.666Z,94970.08
2018-07-11T07:17:07.948Z,94973.06
2018-07-11T07:20:12.387Z,94971.67
2018-07-11T07:23:16.653Z,94964.95
2018-07-11T07:26:20.909Z,94965.34
2018-07-11T07:29:25.203Z,94961.71
2018-07-11T07:32:29.750Z,94961.17
2018-07-11T07:35:34.090Z,94959.69
2018-07-11T07:38:41.758Z,94966.67
2018-07-11T07:41:46.193Z,94953.29
2018-07-11T07:44:50.464Z,94963.58
2018-07-11T07:47:54.965Z,94958.67
2018-07-11T07:50:59.245Z,94950.58
2018-07-11T07:54:03.562Z,94948.23
2018-07-11T07:57:07.753Z,94946.16
2018-07-11T08:00:12.211Z,94942.77
2018-07-11T08:03:17.555Z,94945.87
2018-07-11T08:06:21.830Z,94939.22
2018-07-11T08:09:26.095Z,94946.09
2018-07-11T08:12:31.202Z,94946.34
2018-07-11T08:15:35.493Z,94950.85
2018-07-11T08:18:39.741Z,94951.92
2018-07-11T08:21:44.114Z,94950.27
2018-07-11T08:25:05.377Z,94954.34
2018-07-11T08:29:08.382Z,94951.51
2018-07-11T08:32:29.160Z,94945.77
2018-07-11T08:38:52.694Z,94946.30
2018-07-11T08:42:20.389Z,94941.94
2018-07-11T08:45:44.434Z,94938.80
2018-07-11T08:51:11.448Z,94938.61
2018-07-11T08:56:52.339Z,94942.70
2018-07-11T09:03:26.633Z,94942.25
2018-07-11T09:06:42.832Z,94948.72
2018-07-11T09:11:01.733Z,94948.55
2018-07-11T09:15:24.190Z,94951.40
2018-07-11T09:20:48.602Z,94949.91
2018-07-11T09:24:47.745Z,94941.47
2018-07-11T09:27:53.003Z,94942.64
2018-07-11T09:30:57.245Z,94945.31
2018-07-11T09:34:01.545Z,94944.28
2018-07-11T09:37:05.786Z,94935.71
2018-07-11T09:40:11.531Z,94927.38
2018-07-11T09:43:16.408Z,94936.20
2018-07-11T09:46:20.728Z,94926.39
2018-07-11T09:49:25.915Z,94920.02
2018-07-11T09:52:30.811Z,94929.59
2018-07-11T09:55:35.198Z,94937.47
2018-07-11T09:58:40.323Z,94933.61
2018-07-11T10:01:44.712Z,94935.73
2018-07-11T10:04:48.993Z,94943.05
2018-07-11T10:07:53.898Z,94943.98
2018-07-11T10:10:58.453Z,94939.78
2018-07-11T10:14:02.767Z,94931.39
2018-07-11T10:17:07.305Z,94934.41
2018-07-11T10:20:11.668Z,94927.98
2018-07-11T10:23:15.930Z,94923.33
2018-07-11T10:26:21.626Z,94924.25
2018-07-11T10:29:25.907Z,94924.09
2018-07-11T10:32:30.189Z,94919.05
2018-07-11T10:35:34.611Z,94927.86
2018-07-11T10:38:38.983Z,94925.75
2018-07-11T10:41:43.285Z,94919.82
2018-07-11T10:44:47.593Z,94921.67
2018-07-11T10:47:51.947Z,94926.27
2018-07-11T10:50:56.507Z,94929.08
2018-07-11T10:54:05.046Z,94926.22
2018-07-11T10:57:09.308Z,94915.91
2018-07-11T11:00:35.965Z,94914.20
2018-07-11T11:03:31.824Z,94920.48
2018-07-11T11:06:36.790Z,94923.80
2018-07-11T11:09:41.054Z,94903.59
2018-07-11T11:12:45.631Z,94908.27
2018-07-11T11:15:50.711Z,94905.50
2018-07-11T11:18:55.042Z,94902.09
2018-07-11T11:21:59.309Z,94906.60
2018-07-11T11:25:03.701Z,94903.45
2018-07-11T11:28:07.961Z,94907.64
2018-07-11T11:31:12.969Z,94912.07
2018-07-11T11:34:18.376Z,94923.62
2018-07-11T11:37:22.622Z,94914.78
2018-07-11T11:40:26.793Z,94920.94
2018-07-11T11:43:31.053Z,94921.30
2018-07-11T11:46:37.355Z,94916.56
2018-07-11T11:49:41.718Z,94917.78
2018-07-11T11:52:46.101Z,94906.91
2018-07-11T11:55:50.408Z,94910.27
2018-07-11T11:58:55.466Z,94920.16
2018-07-11T12:01:59.905Z,94924.16
2018-07-11T12:05:04.204Z,94928.61
2018-07-11T12:08:09.295Z,94922.82
2018-07-11T12:11:13.562Z,94925.09
2018-07-11T12:14:18.396Z,94923.40
2018-07-11T12:17:22.832Z,94922.10
2018-07-11T12:20:27.200Z,94923.77
2018-07-11T12:23:31.490Z,94929.10
2018-07-11T12:26:35.831Z,94933.16
2018-07-11T12:29:40.315Z,94931.12
2018-07-11T12:32:44.821Z,94922.00
2018-07-11T12:35:49.263Z,94916.08
2018-07-11T12:38:55.683Z,94916.38
2018-07-11T12:42:00.039Z,94911.67
2018-07-11T12:45:04.553Z,94915.47
2018-07-11T12:48:14.236Z,94915.09
2018-07-11T12:51:18.652Z,94913.29
2018-07-11T12:54:23.005Z,94920.71
2018-07-11T12:57:27.314Z,94921.38
2018-07-11T13:00:32.794Z,94920.23
2018-07-11T13:03:37.713Z,94928.27
2018-07-11T13:06:42.154Z,94930.67
2018-07-11T13:09:46.654Z,94924.83
2018-07-11T13:12:51.552Z,94919.53
2018-07-11T13:15:56.854Z,94924.37
2018-07-11T13:19:01.170Z,94923.61
2018-07-11T13:22:05.595Z,94922.03
2018-07-11T13:25:09.946Z,94921.37
2018-07-11T13:28:14.314Z,94923.39
2018-07-11T13:31:18.586Z,94918.23
2018-07-11T13:34:23.017Z,94923.91
2018-07-11T13:37:27.740Z,94925.05
2018-07-11T13:40:44.997Z,94922.34
2018-07-11T13:43:49.840Z,94920.91
2018-07-11T13:46:57.684Z,94920.73
2018-07-11T13:50:03.249Z,94920.35
2018-07-11T13:53:09.567Z,94926.49
2018-07-11T13:56:14.146Z,94938.47
2018-07-11T13:59:18.616Z,94927.66
2018-07-11T14:02:23.116Z,94924.02
2018-07-11T14:05:28.125Z,94923.18
2018-07-11T14:08:32.668Z,94910.41
2018-07-11T14:11:38.252Z,94914.89
2018-07-11T14:14:42.565Z,94916.86
2018-07-11T14:17:46.854Z,94916.27
2018-07-11T14:20:51.623Z,94918.58
2018-07-11T14:23:56.305Z,94919.20
2018-07-11T14:27:00.612Z,94912.41
2018-07-11T14:30:04.931Z,94925.33
2018-07-11T14:33:10.162Z,94918.22
2018-07-11T14:36:14.565Z,94918.05
2018-07-11T14:39:18.857Z,94917.83
2018-07-11T14:42:23.275Z,94917.82
2018-07-11T14:45:34.912Z,94917.40
2018-07-11T14:48:39.521Z,94914.74
2018-07-11T14:51:43.857Z,94914.56
2018-07-11T14:54:49.492Z,94921.52
2018-07-11T14:57:54.240Z,94916.30
2018-07-11T15:00:58.600Z,94923.65
2018-07-11T15:04:02.975Z,94926.09
2018-07-11T15:07:07.205Z,94919.39
2018-07-11T15:10:11.395Z,94928.04
2018-07-11T15:13:15.809Z,94935.91
2018-07-11T15:19:16.492Z,94938.05
2018-07-11T15:22:21.898Z,94934.17
2018-07-11T15:25:27.013Z,94931.92
2018-07-11T15:28:36.859Z,94938.27
2018-07-11T15:31:41.441Z,94941.92
2018-07-11T15:34:45.828Z,94941.53
2018-07-11T15:37:50.309Z,94938.98
2018-07-11T15:40:55.401Z,94940.29
2018-07-11T15:43:59.855Z,94944.73
2018-07-11T15:47:04.154Z,94937.88
2018-07-11T15:50:08.483Z,94940.33
2018-07-11T15:53:12.773Z,94941.71
2018-07-11T15:56:17.819Z,94944.78
2018-07-11T15:59:24.290Z,94943.34
2018-07-11T16:02:28.426Z,94946.03
2018-07-11T16:05:33.180Z,94951.77
2018-07-11T16:08:37.745Z,94952.38
2018-07-11T16:11:42.085Z,94950.64
2018-07-11T16:14:46.388Z,94952.19
2018-07-11T16:17:50.794Z,94955.73
2018-07-11T16:20:55.306Z,94963.65
2018-07-11T16:24:00.089Z,94955.58
2018-07-11T16:27:04.453Z,94962.73
2018-07-11T16:30:08.949Z,94957.96
2018-07-11T16:33:13.306Z,94960.96
2018-07-11T16:36:20.230Z,94954.45
2018-07-11T16:39:25.132Z,94957.43
2018-07-11T16:42:29.453Z,94962.63
2018-07-11T16:45:33.966Z,94967.40
2018-07-11T16:48:38.320Z,94964.57
2018-07-11T16:51:42.666Z,94972.30
2018-07-11T16:54:47.291Z,94968.78
2018-07-11T16:57:52.738Z,94978.77
2018-07-11T17:00:57.245Z,94981.07
2018-07-11T17:04:05.679Z,94982.10
2018-07-11T17:07:15.557Z,94981.13
2018-07-11T17:10:22.796Z,94984.27
2018-07-11T17:13:27.145Z,94990.42
2018-07-11T17:17:04.870Z,94987.88
2018-07-11T17:20:11.338Z,94994.66
2018-07-11T17:23:15.643Z,94995.92
2018-07-11T17:26:19.981Z,94989.25
2018-07-11T17:29:28.230Z,94993.30
2018-07-11T17:32:32.887Z,94993.41
2018-07-11T17:35:58.143Z,94997.28
2018-07-11T17:39:03.188Z,94999.13
2018-07-11T17:42:08.175Z,95003.52
2018-07-11T17:45:15.983Z,95005.34
2018-07-11T17:49:11.482Z,95009.66
2018-07-11T17:52:15.920Z,95006.16
2018-07-11T17:55:34.657Z,95007.26
2018-07-11T17:58:52.431Z,95004.16
2018-07-11T18:01:58.757Z,95002.45
2018-07-11T18:05:27.138Z,95016.05
2018-07-11T18:08:46.541Z,95010.14
2018-07-11T18:11:59.323Z,95011.41
2018-07-11T18:17:22.061Z,95025.77
2018-07-11T18:20:39.042Z,95019.55
2018-07-11T18:26:09.787Z,95021.42
2018-07-11T18:29:35.723Z,95025.85
2018-07-11T18:33:03.157Z,95027.02
2018-07-11T18:39:30.664Z,95028.56
2018-07-11T18:43:58.725Z,95037.39
2018-07-11T18:47:21.210Z,95033.72
2018-07-11T18:52:48.229Z,95039.98
2018-07-11T18:56:06.538Z,95041.60
2018-07-11T19:01:34.460Z,95045.23
2018-07-11T19:06:59.195Z,95055.16
2018-07-11T19:10:06.883Z,95060.48
2018-07-11T19:13:25.200Z,95061.29
2018-07-11T19:16:45.572Z,95068.75
2018-07-11T19:20:06.828Z,95068.43
2018-07-11T19:24:14.368Z,95071.60
2018-07-11T19:27:34.682Z,95070.78
2018-07-11T19:31:08.645Z,95075.94
2018-07-11T19:36:32.757Z,95085.19
2018-07-11T19:41:55.578Z,95087.71
2018-07-11T19:45:15.946Z,95083.66
2018-07-11T19:50:42.256Z,95088.93
2018-07-11T19:54:01.181Z,95088.88
2018-07-11T19:57:05.562Z,95084.87
2018-07-11T20:00:10.310Z,95090.86
2018-07-11T20:03:14.920Z,95098.53
2018-07-11T20:06:20.045Z,95102.46
2018-07-11T20:09:24.347Z,95105.86
2018-07-11T20:12:28.789Z,95103.19
2018-07-11T20:15:34.605Z,95103.53
2018-07-11T20:18:38.990Z,95110.34
2018-07-11T20:21:43.753Z,95111.34
2018-07-11T20:24:48.257Z,95112.03
2018-07-11T20:27:52.716Z,95108.95
2018-07-11T20:30:57.272Z,95115.34
2018-07-11T20:34:01.707Z,95112.67
2018-07-11T20:37:06.601Z,95108.88
2018-07-11T20:40:11.209Z,95104.64
2018-07-11T20:43:18.398Z,95102.75
2018-07-11T20:46:23.113Z,95106.76
2018-07-11T20:49:34.190Z,95106.70
2018-07-11T20:52:38.799Z,95111.12
2018-07-11T20:55:43.038Z,95111.69
2018-07-11T21:00:07.190Z,95116.96
2018-07-11T21:03:28.448Z,95119.36
2018-07-11T21:07:24.267Z,95122.72
2018-07-11T21:10:52.201Z,95120.75
2018-07-11T21:16:20.496Z,95119.51
2018-07-11T21:19:25.065Z,95122.48
2018-07-11T21:22:29.796Z,95124.11
2018-07-11T21:25:34.216Z,95132.38
2018-07-11T21:28:38.535Z,95131.97
2018-07-11T21:31:43.032Z,95132.31
2018-07-11T21:34:48.397Z,95131.81
2018-07-11T21:37:53.411Z,95133.92
2018-07-11T21:40:57.726Z,95133.02
2018-07-11T21:44:02.055Z,95131.16
2018-07-11T21:47:08.755Z,95134.20
2018-07-11T21:50:13.035Z,95132.22
2018-07-11T21:53:17.408Z,95127.92
2018-07-11T21:56:21.671Z,95132.90
2018-07-11T21:59:25.976Z,95129.81
2018-07-11T22:02:30.626Z,95132.83
2018-07-11T22:05:36.054Z,95129.14
2018-07-11T22:08:40.804Z,95124.03
2018-07-11T22:11:45.571Z,95122.09
2018-07-11T22:14:49.846Z,95119.57
2018-07-11T22:18:11.289Z,95119.95
2018-07-11T22:21:14.995Z,95114.99
2018-07-11T22:24:17.783Z,95111.55
2018-07-11T22:27:21.156Z,95112.30
2018-07-11T22:30:24.753Z,95114.75
2018-07-11T22:33:27.441Z,95110.82
2018-07-11T22:36:30.273Z,95112.86
2018-07-11T22:39:33.141Z,95111.30
2018-07-11T22:42:35.851Z,95116.75
2018-07-11T22:45:38.587Z,95118.52
2018-07-11T22:48:41.525Z,95120.22
2018-07-11T22:51:44.253Z,95117.19
2018-07-11T22:54:46.953Z,95118.44
2018-07-11T22:57:49.951Z,95114.77
2018-07-11T23:00:52.688Z,95117.67
2018-07-11T23:03:55.397Z,95118.34
2018-07-11T23:06:58.093Z,95115.28
2018-07-11T23:10:00.801Z,95123.83
2018-07-11T23:13:04.270Z,95114.71
2018-07-11T23:16:06.988Z,95115.48
2018-07-11T23:19:09.682Z,95109.94
2018-07-11T23:22:12.557Z,95115.84
2018-07-11T23:25:16.207Z,95115.08
2018-07-11T23:28:19.065Z,95117.28
2018-07-11T23:31:21.885Z,95114.73
2018-07-11T23:34:24.627Z,95112.06
2018-07-11T23:37:27.410Z,95112.20
2018-07-11T23:40:30.110Z,95110.09
2018-07-11T23:43:32.808Z,95113.96
2018-07-11T23:46:35.513Z,95114.09
2018-07-11T23:49:38.208Z,95105.98
2018-07-11T23:52:40.915Z,95114.53
2018-07-11T23:55:43.645Z,95117.75
2018-07-11T23:58:47.044Z,95115.64
